createdAt,value
2018-03-20T00:00:06.579Z,60.01
2018-03-20T00:02:35.098Z,60.38
2018-03-20T00:05:04.368Z,58.88
2018-03-20T00:07:32.858Z,60.98
2018-03-20T00:10:01.375Z,60.96
2018-03-20T00:12:29.805Z,60.68
2018-03-20T00:14:58.704Z,60.22
2018-03-20T00:17:27.256Z,60.38
2018-03-20T00:19:56.125Z,59.35
2018-03-20T00:22:25.544Z,58.43
2018-03-20T00:24:54.838Z,58.37
2018-03-20T00:27:24.298Z,58.25
2018-03-20T00:29:52.884Z,59.02
2018-03-20T00:32:22.858Z,57.78
2018-03-20T00:34:51.422Z,57.98
2018-03-20T00:37:21.038Z,58.59
2018-03-20T00:39:50.217Z,59.13
2018-03-20T00:42:18.623Z,59.03
2018-03-20T00:44:47.077Z,59.64
2018-03-20T00:47:15.467Z,60.32
2018-03-20T00:49:44.627Z,60.46
2018-03-20T00:52:13.080Z,61.12
2018-03-20T00:54:41.467Z,60.27
2018-03-20T00:57:10.047Z,59.61
2018-03-20T00:59:38.439Z,59.49
2018-03-20T01:02:06.871Z,59.89
2018-03-20T01:04:36.075Z,60.20
2018-03-20T01:07:05.269Z,59.85
2018-03-20T01:09:34.620Z,59.89
2018-03-20T01:12:02.999Z,59.27
2018-03-20T01:14:31.425Z,59.63
2018-03-20T01:16:59.952Z,60.62
2018-03-20T01:19:29.099Z,61.60
2018-03-20T01:21:57.481Z,62.06
2018-03-20T01:24:25.912Z,62.69
2018-03-20T01:26:54.359Z,62.31
2018-03-20T01:29:23.524Z,63.42
2018-03-20T01:31:51.934Z,63.97
2018-03-20T01:34:21.196Z,64.92
2018-03-20T01:36:49.595Z,64.75
2018-03-20T01:39:18.134Z,65.04
2018-03-20T01:41:46.523Z,64.51
2018-03-20T01:44:14.967Z,65.40
2018-03-20T01:46:44.219Z,67.14
2018-03-20T01:49:12.611Z,65.63
2018-03-20T01:51:41.048Z,67.08
2018-03-20T01:54:09.454Z,67.92
2018-03-20T01:56:38.124Z,67.81
2018-03-20T01:59:06.515Z,67.44
2018-03-20T02:01:34.936Z,67.37
2018-03-20T02:04:04.272Z,67.30
2018-03-20T02:06:32.766Z,67.15
2018-03-20T02:09:01.153Z,67.19
2018-03-20T02:11:29.593Z,67.98
2018-03-20T02:13:58.770Z,67.24
2018-03-20T02:16:27.933Z,65.94
2018-03-20T02:18:56.379Z,66.30
2018-03-20T02:21:25.563Z,67.40
2018-03-20T02:23:54.715Z,67.48
2018-03-20T02:26:23.104Z,68.27
2018-03-20T02:28:51.508Z,67.69
2018-03-20T02:31:19.986Z,68.06
2018-03-20T02:33:49.157Z,68.79
2018-03-20T02:36:17.670Z,69.29
2018-03-20T02:38:46.866Z,69.31
2018-03-20T02:41:15.303Z,69.00
2018-03-20T02:43:43.716Z,69.18
2018-03-20T02:46:12.091Z,69.67
2018-03-20T02:48:40.495Z,69.55
2018-03-20T02:51:08.966Z,70.52
2018-03-20T02:53:37.362Z,70.92
2018-03-20T02:56:06.684Z,69.96
2018-03-20T02:58:35.135Z,68.82
2018-03-20T03:01:04.316Z,68.65
2018-03-20T03:03:32.724Z,68.03
2018-03-20T03:06:01.929Z,68.17
2018-03-20T03:08:31.083Z,67.26
2018-03-20T03:10:59.479Z,66.38
2018-03-20T03:13:28.657Z,67.05
2018-03-20T03:15:57.077Z,64.88
2018-03-20T03:18:26.260Z,65.13
2018-03-20T03:20:54.799Z,63.59
2018-03-20T03:23:23.183Z,63.69
2018-03-20T03:25:51.659Z,64.06
2018-03-20T03:28:20.046Z,63.26
2018-03-20T03:30:48.473Z,63.50
2018-03-20T03:33:16.983Z,62.53
2018-03-20T03:35:45.407Z,62.43
2018-03-20T03:38:14.544Z,62.15
2018-03-20T03:40:43.699Z,61.41
2018-03-20T03:43:12.128Z,63.58
2018-03-20T03:45:41.285Z,62.66
2018-03-20T03:48:09.689Z,62.77
2018-03-20T03:50:38.871Z,61.01
2018-03-20T03:53:07.397Z,60.98
2018-03-20T03:55:36.533Z,61.84
2018-03-20T03:58:05.031Z,60.99
2018-03-20T04:00:33.399Z,61.18
2018-03-20T04:03:01.792Z,61.53
2018-03-20T04:05:30.356Z,62.53
2018-03-20T04:07:58.739Z,62.91
2018-03-20T04:10:27.114Z,61.43
2018-03-20T04:12:55.491Z,60.90
2018-03-20T04:15:23.882Z,61.45
2018-03-20T04:17:52.436Z,61.34
2018-03-20T04:20:20.840Z,61.66
2018-03-20T04:22:49.331Z,61.92
2018-03-20T04:25:17.822Z,61.37
2018-03-20T04:27:46.431Z,61.48
2018-03-20T04:30:14.809Z,61.14
2018-03-20T04:32:43.190Z,60.55
2018-03-20T04:35:12.336Z,62.18
2018-03-20T04:37:40.810Z,61.74
2018-03-20T04:40:10.623Z,61.76
2018-03-20T04:42:39.008Z,61.86
2018-03-20T04:45:07.399Z,62.52
2018-03-20T04:47:35.966Z,62.70
2018-03-20T04:50:04.348Z,62.05
2018-03-20T04:52:32.743Z,62.18
2018-03-20T04:55:01.178Z,61.99
2018-03-20T04:57:30.376Z,61.04
2018-03-20T04:59:59.528Z,62.77
2018-03-20T05:02:28.004Z,61.94
2018-03-20T05:04:56.409Z,63.25
2018-03-20T05:07:24.848Z,61.03
2018-03-20T05:09:53.309Z,60.62
2018-03-20T05:12:21.801Z,61.27
2018-03-20T05:14:50.216Z,61.40
2018-03-20T05:17:18.610Z,61.98
2018-03-20T05:19:52.466Z,62.40
2018-03-20T05:22:26.371Z,62.50
2018-03-20T05:24:54.765Z,63.84
2018-03-20T05:27:23.164Z,62.79
2018-03-20T05:29:51.580Z,63.26
2018-03-20T05:32:20.086Z,63.58
2018-03-20T05:34:49.223Z,64.53
2018-03-20T05:37:17.647Z,65.09
2018-03-20T05:39:46.249Z,66.05
2018-03-20T05:42:15.462Z,65.61
2018-03-20T05:44:43.873Z,65.58
2018-03-20T05:50:28.148Z,68.57
2018-03-20T05:52:56.552Z,71.61
2018-03-20T05:55:24.976Z,73.18
2018-03-20T05:57:54.003Z,73.76
2018-03-20T06:00:22.416Z,74.88
2018-03-20T06:02:50.958Z,76.78
2018-03-20T06:05:19.337Z,77.17
2018-03-20T06:07:47.742Z,77.79
2018-03-20T06:10:16.167Z,78.65
2018-03-20T06:12:45.354Z,78.72
2018-03-20T06:15:14.148Z,79.41
2018-03-20T06:17:42.587Z,80.56
2018-03-20T06:20:10.962Z,79.98
2018-03-20T06:22:39.354Z,79.75
2018-03-20T06:25:07.845Z,79.96
2018-03-20T06:27:36.460Z,79.03
2018-03-20T06:30:05.608Z,79.27
2018-03-20T06:32:34.000Z,79.54
2018-03-20T06:35:02.401Z,79.55
2018-03-20T06:37:31.014Z,80.06
2018-03-20T06:39:59.448Z,80.21
2018-03-20T06:42:27.851Z,81.59
2018-03-20T06:44:57.013Z,82.03
2018-03-20T06:47:25.502Z,82.01
2018-03-20T06:49:53.951Z,81.56
2018-03-20T06:52:22.398Z,81.94
2018-03-20T06:54:51.634Z,81.94
2018-03-20T06:57:20.320Z,81.72
2018-03-20T06:59:48.714Z,81.98
2018-03-20T07:02:17.099Z,81.80
2018-03-20T07:04:46.253Z,81.09
2018-03-20T07:07:14.642Z,80.92
2018-03-20T07:09:43.079Z,81.04
2018-03-20T07:12:12.928Z,81.13
2018-03-20T07:14:41.336Z,81.39
2018-03-20T07:17:10.506Z,81.59
2018-03-20T07:19:38.919Z,80.29
2018-03-20T07:22:08.201Z,80.60
2018-03-20T07:24:36.676Z,81.26
2018-03-20T07:27:05.099Z,80.45
2018-03-20T07:29:33.573Z,80.18
2018-03-20T07:32:01.957Z,79.98
2018-03-20T07:34:30.420Z,80.06
2018-03-20T07:36:58.826Z,80.36
2018-03-20T07:39:27.974Z,79.63
2018-03-20T07:41:56.447Z,80.11
2018-03-20T07:44:24.820Z,78.93
2018-03-20T07:46:53.224Z,78.97
2018-03-20T07:49:21.626Z,79.22
2018-03-20T07:51:50.088Z,79.35
2018-03-20T07:54:18.626Z,79.22
2018-03-20T07:56:47.780Z,79.46
2018-03-20T07:59:16.295Z,79.75
2018-03-20T08:01:44.675Z,79.66
2018-03-20T08:04:14.018Z,78.28
2018-03-20T08:06:42.459Z,78.50
2018-03-20T08:09:11.780Z,78.20
2018-03-20T08:11:40.195Z,77.95
2018-03-20T08:14:08.728Z,77.88
2018-03-20T08:16:37.877Z,78.50
2018-03-20T08:19:06.304Z,79.00
2018-03-20T08:21:34.689Z,80.24
2018-03-20T08:24:04.021Z,80.27
2018-03-20T08:26:32.464Z,79.73
2018-03-20T08:29:00.946Z,79.65
2018-03-20T08:31:30.247Z,79.34
2018-03-20T08:33:58.626Z,80.44
2018-03-20T08:36:27.783Z,80.26
2018-03-20T08:38:56.179Z,80.63
2018-03-20T08:41:24.591Z,80.26
2018-03-20T08:43:53.747Z,80.37
2018-03-20T08:46:22.212Z,79.09
2018-03-20T08:48:50.615Z,78.93
2018-03-20T08:51:18.994Z,79.15
2018-03-20T08:53:47.367Z,77.92
2018-03-20T08:56:15.889Z,77.42
2018-03-20T08:58:45.061Z,77.83
2018-03-20T09:01:13.430Z,77.33
2018-03-20T09:03:41.979Z,75.31
2018-03-20T09:06:10.380Z,75.85
2018-03-20T09:08:38.813Z,74.06
2018-03-20T09:11:07.212Z,73.09
2018-03-20T09:13:35.654Z,71.80
2018-03-20T09:16:04.248Z,72.99
2018-03-20T09:18:32.865Z,72.50
2018-03-20T09:21:02.031Z,71.90
2018-03-20T09:23:30.427Z,69.21
2018-03-20T09:25:59.604Z,68.82
2018-03-20T09:28:28.003Z,67.91
2018-03-20T09:30:57.202Z,69.08
2018-03-20T09:33:26.554Z,68.18
2018-03-20T09:35:55.015Z,67.03
2018-03-20T09:38:24.199Z,67.43
2018-03-20T09:40:53.357Z,61.74
2018-03-20T09:43:21.836Z,59.95
2018-03-20T09:45:50.226Z,57.56
2018-03-20T09:48:19.472Z,55.05
2018-03-20T09:50:48.669Z,54.51
2018-03-20T09:53:17.845Z,56.17
2018-03-20T09:55:46.226Z,54.79
2018-03-20T09:58:14.617Z,54.02
2018-03-20T10:00:43.907Z,54.31
2018-03-20T10:03:12.291Z,52.39
2018-03-20T10:05:41.487Z,55.04
2018-03-20T10:08:10.675Z,53.34
2018-03-20T10:10:39.059Z,55.35
2018-03-20T10:13:07.484Z,50.60
2018-03-20T10:15:35.885Z,52.67
2018-03-20T10:18:04.278Z,53.66
2018-03-20T10:20:32.663Z,50.80
2018-03-20T10:23:01.129Z,51.23
2018-03-20T10:25:29.616Z,51.78
2018-03-20T10:27:58.303Z,50.05
2018-03-20T10:30:26.703Z,49.40
2018-03-20T10:32:55.156Z,50.70
2018-03-20T10:35:23.567Z,48.13
2018-03-20T10:37:52.011Z,48.89
2018-03-20T10:40:20.422Z,49.90
2018-03-20T10:42:48.814Z,49.37
2018-03-20T10:45:17.253Z,52.16
2018-03-20T10:47:45.652Z,49.70
2018-03-20T10:50:14.073Z,45.85
2018-03-20T10:52:42.493Z,45.48
2018-03-20T10:55:11.775Z,47.62
2018-03-20T10:57:40.187Z,46.31
2018-03-20T11:00:08.573Z,45.93
2018-03-20T11:02:36.999Z,45.92
2018-03-20T11:05:05.446Z,45.13
2018-03-20T11:07:33.917Z,43.56
2018-03-20T11:10:02.313Z,40.07
2018-03-20T11:12:30.729Z,40.76
2018-03-20T11:14:59.108Z,41.58
2018-03-20T11:17:27.496Z,40.26
2018-03-20T11:19:56.247Z,40.72
2018-03-20T11:22:24.642Z,38.27
2018-03-20T11:24:53.120Z,39.55
2018-03-20T11:27:21.539Z,39.05
2018-03-20T11:29:49.950Z,38.11
2018-03-20T11:32:19.123Z,40.67
2018-03-20T11:34:47.536Z,37.94
2018-03-20T11:37:15.972Z,38.19
2018-03-20T11:39:44.383Z,37.74
2018-03-20T11:42:13.564Z,37.78
2018-03-20T11:44:41.952Z,36.01
2018-03-20T11:47:10.347Z,37.28
2018-03-20T11:49:38.825Z,37.18
2018-03-20T11:52:07.995Z,38.08
2018-03-20T11:54:36.574Z,35.29
2018-03-20T11:57:04.950Z,35.65
2018-03-20T11:59:34.913Z,36.17
2018-03-20T12:02:04.289Z,36.11
2018-03-20T12:04:32.691Z,35.93
2018-03-20T12:07:01.862Z,36.44
2018-03-20T12:09:46.827Z,35.29
2018-03-20T12:12:15.244Z,35.23
2018-03-20T12:14:43.646Z,35.07
2018-03-20T12:17:12.038Z,35.53
2018-03-20T12:19:40.503Z,35.79
2018-03-20T12:22:08.912Z,36.30
2018-03-20T12:24:37.334Z,35.07
2018-03-20T12:27:05.724Z,35.01
2018-03-20T12:29:34.877Z,34.53
2018-03-20T12:32:03.272Z,33.35
2018-03-20T12:34:31.752Z,33.75
2018-03-20T12:37:00.376Z,34.79
2018-03-20T12:39:28.770Z,35.69
2018-03-20T12:41:57.181Z,32.98
2018-03-20T12:44:25.668Z,35.11
2018-03-20T12:46:54.771Z,34.02
2018-03-20T12:49:23.213Z,33.11
2018-03-20T12:51:51.680Z,33.47
2018-03-20T12:54:30.231Z,33.35
2018-03-20T12:56:58.872Z,33.19
2018-03-20T12:59:27.256Z,32.81
2018-03-20T13:01:56.438Z,32.87
2018-03-20T13:04:24.866Z,32.50
2018-03-20T13:06:53.278Z,32.39
2018-03-20T13:09:21.690Z,31.76
2018-03-20T13:11:50.937Z,32.03
2018-03-20T13:14:19.348Z,31.03
2018-03-20T13:16:47.955Z,31.99
2018-03-20T13:19:16.384Z,31.45
2018-03-20T13:21:45.525Z,31.27
2018-03-20T13:24:14.075Z,30.11
2018-03-20T13:26:42.644Z,29.41
2018-03-20T13:29:11.087Z,30.94
2018-03-20T13:31:39.496Z,31.08
2018-03-20T13:34:08.651Z,28.46
2018-03-20T13:36:37.091Z,29.49
2018-03-20T13:39:05.473Z,29.38
2018-03-20T13:41:33.903Z,29.53
2018-03-20T13:44:02.315Z,30.74
2018-03-20T13:46:30.745Z,30.37
2018-03-20T13:48:59.123Z,29.42
2018-03-20T13:51:27.782Z,29.25
2018-03-20T13:53:56.877Z,28.45
2018-03-20T13:56:25.825Z,28.43
2018-03-20T13:58:54.452Z,30.02
2018-03-20T14:01:23.024Z,28.68
2018-03-20T14:03:51.518Z,26.70
2018-03-20T14:06:19.925Z,27.24
2018-03-20T14:08:49.141Z,27.52
2018-03-20T14:11:17.762Z,26.69
2018-03-20T14:13:46.287Z,26.54
2018-03-20T14:16:14.943Z,27.11
2018-03-20T14:18:43.354Z,28.77
2018-03-20T14:21:11.769Z,28.05
2018-03-20T14:23:40.196Z,27.85
2018-03-20T14:26:09.452Z,27.22
2018-03-20T14:28:37.881Z,26.69
2018-03-20T14:31:07.055Z,26.72
2018-03-20T14:33:35.500Z,26.54
2018-03-20T14:36:04.006Z,27.45
2018-03-20T14:38:32.495Z,26.77
2018-03-20T14:41:01.218Z,27.79
2018-03-20T14:43:30.521Z,26.90
2018-03-20T14:45:59.127Z,27.95
2018-03-20T14:48:27.609Z,27.96
2018-03-20T14:50:56.042Z,27.91
2018-03-20T14:53:24.483Z,28.38
2018-03-20T14:55:52.903Z,27.46
2018-03-20T14:58:21.314Z,27.91
2018-03-20T15:00:49.757Z,28.10
2018-03-20T15:03:18.331Z,28.25
2018-03-20T15:05:46.756Z,28.02
2018-03-20T15:08:15.948Z,27.75
2018-03-20T15:10:44.730Z,27.83
2018-03-20T15:13:14.080Z,26.98
2018-03-20T15:15:42.516Z,27.79
2018-03-20T15:18:11.878Z,28.50
2018-03-20T15:20:40.364Z,28.06
2018-03-20T15:23:08.880Z,27.60
2018-03-20T15:25:37.315Z,27.96
2018-03-20T15:28:05.750Z,27.71
2018-03-20T15:30:34.909Z,28.28
2018-03-20T15:33:03.305Z,28.26
2018-03-20T15:35:31.864Z,28.72
2018-03-20T15:38:00.264Z,28.26
2018-03-20T15:40:28.826Z,28.13
2018-03-20T15:42:57.268Z,28.07
2018-03-20T15:45:26.491Z,28.81
2018-03-20T15:47:55.024Z,29.46
2018-03-20T15:50:23.543Z,28.69
2018-03-20T15:52:52.089Z,28.20
2018-03-20T15:55:21.272Z,27.53
2018-03-20T15:57:49.717Z,27.82
2018-03-20T16:00:18.118Z,28.38
2018-03-20T16:02:46.613Z,27.32
2018-03-20T16:05:15.030Z,27.90
2018-03-20T16:07:44.311Z,27.68
2018-03-20T16:10:12.809Z,27.86
2018-03-20T16:12:41.286Z,26.71
2018-03-20T16:15:09.742Z,27.88
2018-03-20T16:17:38.429Z,27.22
2018-03-20T16:20:07.748Z,29.28
2018-03-20T16:22:36.198Z,29.57
2018-03-20T16:25:04.660Z,28.83
2018-03-20T16:27:33.082Z,28.33
2018-03-20T16:30:01.831Z,28.80
2018-03-20T16:32:30.333Z,28.30
2018-03-20T16:34:58.764Z,29.20
2018-03-20T16:37:27.186Z,29.70
2018-03-20T16:39:55.643Z,29.62
2018-03-20T16:42:24.948Z,30.55
2018-03-20T16:44:54.195Z,29.78
2018-03-20T16:47:23.505Z,30.63
2018-03-20T16:49:51.923Z,31.57
2018-03-20T16:52:21.173Z,31.00
2018-03-20T16:54:49.610Z,31.37
2018-03-20T16:57:18.028Z,32.58
2018-03-20T16:59:46.425Z,32.09
2018-03-20T17:02:14.937Z,32.01
2018-03-20T17:04:43.329Z,33.00
2018-03-20T17:07:11.808Z,31.97
2018-03-20T17:09:40.212Z,31.49
2018-03-20T17:12:08.674Z,31.25
2018-03-20T17:14:38.470Z,31.53
2018-03-20T17:17:06.942Z,31.97
2018-03-20T17:19:35.359Z,31.94
2018-03-20T17:22:03.778Z,32.64
2018-03-20T17:24:34.536Z,31.56
2018-03-20T17:27:02.981Z,31.34
2018-03-20T17:29:31.378Z,30.87
2018-03-20T17:32:00.650Z,31.30
2018-03-20T17:34:29.059Z,30.79
2018-03-20T17:36:57.481Z,31.21
2018-03-20T17:39:26.103Z,31.10
2018-03-20T17:41:55.428Z,31.58
2018-03-20T17:44:23.844Z,32.52
2018-03-20T17:46:54.208Z,32.45
2018-03-20T17:49:22.778Z,31.96
2018-03-20T17:51:51.188Z,33.24
2018-03-20T17:54:19.694Z,32.69
2018-03-20T17:56:48.151Z,32.91
2018-03-20T17:59:16.648Z,32.94
2018-03-20T18:01:45.050Z,32.98
2018-03-20T18:04:14.201Z,33.61
2018-03-20T18:06:42.612Z,34.28
2018-03-20T18:09:11.192Z,34.60
2018-03-20T18:11:39.632Z,34.84
2018-03-20T18:14:08.050Z,34.69
2018-03-20T18:16:36.472Z,35.04
2018-03-20T18:19:04.881Z,35.84
2018-03-20T18:21:34.077Z,35.25
2018-03-20T18:24:02.497Z,35.86
2018-03-20T18:26:31.152Z,36.55
2018-03-20T18:29:00.363Z,36.41
2018-03-20T18:31:28.797Z,36.66
2018-03-20T18:33:57.966Z,36.42
2018-03-20T18:36:26.465Z,36.70
2018-03-20T18:38:54.873Z,37.16
2018-03-20T18:41:23.339Z,39.05
2018-03-20T18:43:52.492Z,38.61
2018-03-20T18:46:20.965Z,38.46
2018-03-20T18:48:49.429Z,38.61
2018-03-20T18:51:17.872Z,39.05
2018-03-20T18:53:46.412Z,39.65
2018-03-20T18:56:14.882Z,40.18
2018-03-20T18:58:43.326Z,39.23
2018-03-20T19:01:12.659Z,39.27
2018-03-20T19:03:41.151Z,39.15
2018-03-20T19:06:09.678Z,38.83
2018-03-20T19:08:38.135Z,39.08
2018-03-20T19:11:06.521Z,38.63
2018-03-20T19:13:34.956Z,38.81
2018-03-20T19:16:04.101Z,39.45
2018-03-20T19:18:32.468Z,39.35
2018-03-20T19:21:00.917Z,40.04
2018-03-20T19:23:30.416Z,40.78
2018-03-20T19:25:59.588Z,39.41
2018-03-20T19:28:28.011Z,39.56
2018-03-20T19:30:56.467Z,39.47
2018-03-20T19:33:25.000Z,39.99
2018-03-20T19:35:53.451Z,41.15
2018-03-20T19:38:22.640Z,40.30
2018-03-20T19:40:51.072Z,41.08
2018-03-20T19:43:19.523Z,41.11
2018-03-20T19:45:47.931Z,42.29
2018-03-20T19:48:16.330Z,42.70
2018-03-20T19:50:44.737Z,42.95
2018-03-20T19:53:13.189Z,43.73
2018-03-20T19:55:41.641Z,44.24
2018-03-20T19:58:10.235Z,44.40
2018-03-20T20:00:38.616Z,43.85
2018-03-20T20:03:07.000Z,44.40
2018-03-20T20:05:35.637Z,44.52
2018-03-20T20:08:04.135Z,44.86
2018-03-20T20:10:33.305Z,44.69
2018-03-20T20:13:01.761Z,44.77
2018-03-20T20:15:30.343Z,45.44
2018-03-20T20:17:59.092Z,45.66
2018-03-20T20:20:28.481Z,45.88
2018-03-20T20:22:56.968Z,46.01
2018-03-20T20:25:26.802Z,46.66
2018-03-20T20:27:55.228Z,46.82
2018-03-20T20:30:23.801Z,47.64
2018-03-20T20:32:52.319Z,48.46
2018-03-20T20:35:20.753Z,48.58
2018-03-20T20:37:49.145Z,48.75
2018-03-20T20:40:17.619Z,49.09
2018-03-20T20:42:46.048Z,49.15
2018-03-20T20:45:14.467Z,49.57
2018-03-20T20:47:42.946Z,49.97
2018-03-20T20:50:11.350Z,50.42
2018-03-20T20:52:40.765Z,50.52
2018-03-20T20:55:09.149Z,51.72
2018-03-20T20:57:38.798Z,52.36
2018-03-20T21:00:07.174Z,52.24
2018-03-20T21:02:35.678Z,53.04
2018-03-20T21:05:04.849Z,53.29
2018-03-20T21:07:37.448Z,54.28
2018-03-20T21:10:06.031Z,53.98
2018-03-20T21:12:35.997Z,54.17
2018-03-20T21:15:04.546Z,54.52
2018-03-20T21:17:33.879Z,54.83
2018-03-20T21:20:02.577Z,54.38
2018-03-20T21:22:31.797Z,54.92
2018-03-20T21:25:00.379Z,54.50
2018-03-20T21:27:28.954Z,54.98
2018-03-20T21:29:57.400Z,55.59
2018-03-20T21:32:26.031Z,55.93
2018-03-20T21:34:54.712Z,56.53
2018-03-20T21:37:23.169Z,57.09
2018-03-20T21:39:51.574Z,58.03
2018-03-20T21:42:20.524Z,57.88
2018-03-20T21:44:48.972Z,58.31
2018-03-20T21:47:17.368Z,59.13
2018-03-20T21:49:46.580Z,59.30
2018-03-20T21:52:15.736Z,59.40
2018-03-20T21:54:44.155Z,59.95
2018-03-20T21:57:13.318Z,60.48
2018-03-20T21:59:41.731Z,60.79
2018-03-20T22:02:10.893Z,61.69
2018-03-20T22:04:39.342Z,62.34
2018-03-20T22:07:07.950Z,63.03
2018-03-20T22:09:36.468Z,63.95
2018-03-20T22:12:04.857Z,64.57
2018-03-20T22:14:34.148Z,64.55
2018-03-20T22:17:03.361Z,64.69
2018-03-20T22:19:32.542Z,64.68
2018-03-20T22:22:00.925Z,64.65
2018-03-20T22:24:29.356Z,64.64
2018-03-20T22:26:57.763Z,63.88
2018-03-20T22:29:26.213Z,63.64
2018-03-20T22:31:54.658Z,63.70
2018-03-20T22:34:24.086Z,63.61
2018-03-20T22:36:52.478Z,64.33
2018-03-20T22:39:21.127Z,64.68
2018-03-20T22:41:50.305Z,64.81
2018-03-20T22:44:18.716Z,65.35
2018-03-20T22:46:47.859Z,65.54
2018-03-20T22:49:16.243Z,65.94
2018-03-20T22:51:44.637Z,66.04
2018-03-20T22:54:13.046Z,66.28
2018-03-20T22:56:42.405Z,66.70
2018-03-20T22:59:10.878Z,66.51
2018-03-20T23:01:39.270Z,66.31
2018-03-20T23:04:07.648Z,66.64
2018-03-20T23:06:36.062Z,66.72
2018-03-20T23:09:04.453Z,66.43
2018-03-20T23:11:33.628Z,67.13
2018-03-20T23:14:02.114Z,67.15
2018-03-20T23:16:30.605Z,67.07
2018-03-20T23:18:58.995Z,66.52
2018-03-20T23:21:27.407Z,65.91
2018-03-20T23:23:55.816Z,65.20
2018-03-20T23:26:24.238Z,65.36
2018-03-20T23:28:52.784Z,65.85
2018-03-20T23:31:21.481Z,66.03
2018-03-20T23:33:50.678Z,66.17
2018-03-20T23:36:19.225Z,66.89
2018-03-20T23:38:48.934Z,67.10
2018-03-20T23:41:18.354Z,66.86
2018-03-20T23:43:47.110Z,66.77
2018-03-20T23:46:15.512Z,66.71
2018-03-20T23:48:44.692Z,66.73
2018-03-20T23:51:14.051Z,66.69
2018-03-20T23:53:42.439Z,67.31
2018-03-20T23:56:10.863Z,67.48
2018-03-20T23:58:40.098Z,67.57
